Time;durP1;ratioP1;P1;durP2;ratioP2;P2;SDS_P1;SDS_P2;PMS_P1;PMS_P2;Temp;Humidity;BMP_temperature;BMP_pressure;BME280_temperature;BME280_humidity;BME280_pressure;Samples;Min_cycle;Max_cycle;Signal;HPM_P1;HPM_P2
2022/01/03 00:02:25;;;;;;;4.87;2.63;;;;;;;11.24;100.00;95413.13;5058943;28;20205;-67
2022/01/03 00:04:52;;;;;;;3.30;2.47;;;;;;;11.29;100.00;95417.38;5058776;28;20182;-67
2022/01/03 00:07:17;;;;;;;4.77;2.27;;;;;;;11.26;100.00;95401.78;5076340;28;20181;-67
2022/01/03 00:09:43;;;;;;;3.10;2.20;;;;;;;11.24;100.00;95409.59;5058628;28;20248;-66
2022/01/03 00:12:09;;;;;;;4.20;2.00;;;;;;;11.28;100.00;95402.94;5058438;28;20294;-71
2022/01/03 00:14:35;;;;;;;3.07;2.27;;;;;;;11.19;100.00;95402.66;5058214;28;20294;-70
2022/01/03 00:17:00;;;;;;;2.90;2.20;;;;;;;11.12;100.00;95391.00;5058335;28;20211;-71
2022/01/03 00:19:26;;;;;;;4.07;2.00;;;;;;;11.05;100.00;95380.13;5058436;28;20205;-71
2022/01/03 00:21:56;;;;;;;2.90;2.20;;;;;;;11.09;100.00;95380.88;5058513;28;20339;-71
2022/01/03 00:24:31;;;;;;;4.83;2.33;;;;;;;11.05;100.00;95377.41;5058613;28;20266;-71
2022/01/03 00:27:02;;;;;;;4.03;2.20;;;;;;;11.03;100.00;95377.06;5058991;28;20200;-67
2022/01/03 00:29:35;;;;;;;3.53;2.00;;;;;;;11.05;100.00;95380.13;5058611;28;20242;-69
2022/01/03 00:32:01;;;;;;;2.77;2.03;;;;;;;11.10;100.00;95360.56;5058879;28;20201;-71
2022/01/03 00:34:32;;;;;;;4.60;2.40;;;;;;;11.12;100.00;95375.38;5057904;28;20185;-72
2022/01/03 00:36:58;;;;;;;2.77;1.80;;;;;;;11.17;100.00;95360.47;5058506;28;20205;-73
2022/01/03 00:39:23;;;;;;;3.00;1.90;;;;;;;11.20;100.00;95354.19;5057566;28;20210;-71
2022/01/03 00:41:49;;;;;;;3.47;2.30;;;;;;;11.14;100.00;95362.06;5058462;28;20260;-71
2022/01/03 00:44:15;;;;;;;3.70;2.30;;;;;;;11.07;100.00;95362.16;5057928;28;20206;-69
2022/01/03 00:46:43;;;;;;;3.70;2.00;;;;;;;11.08;100.00;95376.59;5058170;28;20222;-58
2022/01/03 00:49:08;;;;;;;2.97;2.10;;;;;;;11.10;100.00;95379.69;5058191;28;20214;-60
2022/01/03 00:51:35;;;;;;;4.03;2.10;;;;;;;11.13;100.00;95387.06;5058080;28;20261;-60
2022/01/03 00:54:00;;;;;;;4.80;2.20;;;;;;;11.12;100.00;95380.06;5058259;28;20249;-61
2022/01/03 00:56:34;;;;;;;3.00;2.10;;;;;;;11.05;100.00;95380.13;5058363;28;20194;-61
2022/01/03 00:59:11;;;;;;;4.07;2.30;;;;;;;11.04;100.00;95378.59;5058663;28;20205;-61
2022/01/03 01:01:45;;;;;;;3.00;1.90;;;;;;;10.95;100.00;95387.25;5058365;28;20194;-60
2022/01/03 01:04:13;;;;;;;3.47;2.00;;;;;;;11.02;100.00;95391.88;5058104;28;20208;-67
2022/01/03 01:06:39;;;;;;;2.73;1.80;;;;;;;10.98;100.00;95385.66;5057806;28;20224;-57
2022/01/03 01:09:07;;;;;;;4.13;2.00;;;;;;;10.91;100.00;95391.19;5057594;28;20220;-58
2022/01/03 01:11:33;;;;;;;3.63;1.83;;;;;;;10.86;100.00;95391.66;5058253;28;20219;-57
2022/01/03 01:14:00;;;;;;;3.47;2.07;;;;;;;10.85;100.00;95382.66;5058351;28;20199;-57
2022/01/03 01:16:26;;;;;;;4.07;1.90;;;;;;;10.81;100.00;95383.91;5058219;28;20200;-57
2022/01/03 01:18:52;;;;;;;2.80;1.80;;;;;;;10.84;100.00;95374.88;5058185;28;20203;-57
2022/01/03 01:21:18;;;;;;;2.87;1.77;;;;;;;10.83;100.00;95376.06;5074183;28;20235;-67
2022/01/03 01:23:44;;;;;;;4.30;2.00;;;;;;;10.82;100.00;95386.22;5057736;28;20245;-60
2022/01/03 01:28:55;;;;;;;3.70;2.07;;;;;;;10.87;100.00;95376.81;5075784;28;20265;-60
2022/01/03 01:31:22;;;;;;;2.77;2.07;;;;;;;10.84;100.00;95364.75;5057175;28;20204;-61
2022/01/03 01:33:54;;;;;;;3.13;1.90;;;;;;;10.82;100.00;95363.59;5057302;28;20208;-60
2022/01/03 01:36:28;;;;;;;4.60;1.80;;;;;;;10.82;100.00;95355.41;5057598;28;20204;-60
2022/01/03 01:38:59;;;;;;;3.80;2.00;;;;;;;10.82;100.00;95374.53;5057944;28;20189;-60
2022/01/03 01:41:27;;;;;;;3.33;1.83;;;;;;;10.81;100.00;95368.28;5057532;28;20256;-61
2022/01/03 01:43:57;;;;;;;3.13;2.00;;;;;;;10.81;100.00;95376.47;5057736;28;20199;-67
2022/01/03 01:46:24;;;;;;;3.03;1.50;;;;;;;10.78;100.00;95392.91;5057639;28;20254;-67
2022/01/03 01:48:50;;;;;;;4.53;1.80;;;;;;;10.82;100.00;95383.47;5057346;28;20295;-67
2022/01/03 01:51:18;;;;;;;3.47;2.10;;;;;;;10.85;100.00;95392.84;5057266;28;20289;-67
2022/01/03 01:53:48;;;;;;;2.83;1.60;;;;;;;10.84;100.00;95396.72;5057444;28;20349;-67
2022/01/03 01:56:25;;;;;;;4.43;1.90;;;;;;;10.79;100.00;95389.78;5057026;28;20240;-67
2022/01/03 01:59:11;;;;;;;3.40;1.80;;;;;;;10.76;100.00;95382.38;5056963;28;20192;-66
2022/01/03 02:01:48;;;;;;;4.47;1.83;;;;;;;10.75;100.00;95378.09;5057224;28;20203;-60
2022/01/03 02:04:32;;;;;;;4.57;1.60;;;;;;;10.77;100.00;95380.41;5056618;28;20205;-60
2022/01/03 02:07:19;;;;;;;4.83;1.80;;;;;;;10.79;100.00;95372.59;5056976;28;20239;-60
2022/01/03 02:10:12;;;;;;;5.53;2.00;;;;;;;10.77;100.00;95369.47;5057017;28;20203;-60
2022/01/03 02:12:41;;;;;;;4.33;1.53;;;;;;;10.71;100.00;95371.13;5056913;28;20188;-60
2022/01/03 02:15:11;;;;;;;2.73;1.60;;;;;;;10.75;100.00;95355.47;5057169;28;20227;-61
2022/01/03 02:17:37;;;;;;;2.57;1.80;;;;;;;10.71;100.00;95350.03;5057530;28;20188;-60
2022/01/03 02:20:20;;;;;;;3.33;1.70;;;;;;;10.72;100.00;95353.53;5057155;28;20235;-61
2022/01/03 02:22:45;;;;;;;4.07;1.90;;;;;;;10.66;100.00;95357.88;5073209;28;20216;-60
2022/01/03 02:25:13;;;;;;;3.13;1.73;;;;;;;10.65;100.00;95345.41;5056369;28;20209;-60
2022/01/03 02:27:39;;;;;;;5.07;1.80;;;;;;;10.65;100.00;95357.13;5073592;28;20263;-60
2022/01/03 02:30:11;;;;;;;3.93;1.43;;;;;;;10.67;100.00;95337.59;5056390;28;20213;-60
2022/01/03 02:32:36;;;;;;;4.73;1.90;;;;;;;10.65;100.00;95353.59;5056631;28;20205;-60
2022/01/03 02:35:03;;;;;;;3.90;1.80;;;;;;;10.65;100.00;95345.41;5056862;28;20207;-59
2022/01/03 02:37:28;;;;;;;2.83;1.43;;;;;;;10.62;100.00;95352.47;5056676;28;20202;-61
2022/01/03 02:39:55;;;;;;;3.20;1.70;;;;;;;10.61;100.00;95339.22;5056559;28;20355;-60
2022/01/03 02:42:23;;;;;;;2.60;1.67;;;;;;;10.63;100.00;95354.00;5056210;28;20211;-61
2022/01/03 02:45:06;;;;;;;3.90;1.53;;;;;;;10.64;100.00;95349.31;5056274;28;20213;-60
2022/01/03 02:47:31;;;;;;;3.50;1.80;;;;;;;10.60;100.00;95332.22;5056648;28;20208;-60
2022/01/03 02:49:57;;;;;;;4.50;1.60;;;;;;;10.65;100.00;95339.94;5056244;28;20205;-60
2022/01/03 02:52:22;;;;;;;2.57;1.40;;;;;;;10.69;100.00;95344.19;5056234;28;20285;-61
2022/01/03 02:54:49;;;;;;;4.57;1.50;;;;;;;10.68;100.00;95339.16;5056151;28;20296;-71
2022/01/03 02:57:15;;;;;;;2.93;1.77;;;;;;;10.72;100.00;95350.81;5055952;28;20209;-60
2022/01/03 02:59:40;;;;;;;2.10;1.43;;;;;;;10.70;100.00;95336.78;5056616;28;20201;-62
2022/01/03 03:02:06;;;;;;;2.53;1.40;;;;;;;10.75;100.00;95344.53;5055408;28;20201;-62
2022/01/03 03:04:32;;;;;;;2.83;1.57;;;;;;;10.78;100.00;95354.66;5056137;28;20249;-60
2022/01/03 03:06:57;;;;;;;3.47;1.70;;;;;;;10.80;100.00;95371.41;5056178;28;20198;-61
2022/01/03 03:09:23;;;;;;;3.97;1.67;;;;;;;10.86;100.00;95378.00;5055888;28;20172;-60
2022/01/03 03:11:49;;;;;;;3.33;1.50;;;;;;;10.84;100.00;95377.59;5056386;28;20200;-58
2022/01/03 03:14:15;;;;;;;5.13;1.70;;;;;;;10.82;100.00;95367.09;5056502;28;20202;-59
2022/01/03 03:16:41;;;;;;;3.27;1.67;;;;;;;10.81;100.00;95362.06;5056204;28;20195;-60
2022/01/03 03:19:08;;;;;;;3.87;1.60;;;;;;;10.80;100.00;95364.00;5055628;28;20266;-61
2022/01/03 03:21:34;;;;;;;3.40;1.57;;;;;;;10.82;100.00;95367.09;5055940;28;20288;-60
2022/01/03 03:24:00;;;;;;;2.87;1.57;;;;;;;10.80;100.00;95374.94;5055591;28;20230;-60
2022/01/03 03:26:25;;;;;;;3.90;1.67;;;;;;;10.77;100.00;95381.19;5056027;28;20251;-60
2022/01/03 03:28:51;;;;;;;3.80;1.73;;;;;;;10.75;100.00;95378.09;5055617;28;20201;-60
2022/01/03 03:31:17;;;;;;;3.23;1.80;;;;;;;10.75;100.00;95371.84;5056246;28;20199;-60
2022/01/03 03:33:42;;;;;;;2.87;1.63;;;;;;;10.76;100.00;95357.00;5056299;28;20280;-59
2022/01/03 03:36:07;;;;;;;4.73;1.80;;;;;;;10.77;100.00;95347.63;5055914;28;20194;-58
2022/01/03 03:38:33;;;;;;;5.43;1.53;;;;;;;10.78;100.00;95354.66;5055258;28;20274;-58
2022/01/03 03:41:00;;;;;;;3.60;1.53;;;;;;;10.74;100.00;95364.84;5055589;28;20271;-58
2022/01/03 03:43:25;;;;;;;3.20;1.50;;;;;;;10.77;100.00;95358.56;5055320;28;20223;-58
2022/01/03 03:45:50;;;;;;;4.73;1.80;;;;;;;10.75;100.00;95369.13;5055247;28;20198;-58
2022/01/03 03:48:17;;;;;;;3.80;1.57;;;;;;;10.74;100.00;95360.16;5055071;28;20226;-57
2022/01/03 03:50:43;;;;;;;3.40;1.67;;;;;;;10.76;100.00;95367.94;5055987;28;20286;-71
2022/01/03 03:53:09;;;;;;;3.97;1.53;;;;;;;10.74;100.00;95367.56;5055327;28;20225;-65
2022/01/03 03:55:34;;;;;;;2.23;1.40;;;;;;;10.69;100.00;95374.25;5055821;28;20199;-65
2022/01/03 03:58:00;;;;;;;3.57;1.33;;;;;;;10.70;100.00;95364.09;5055613;28;20199;-65
2022/01/03 04:00:27;;;;;;;7.00;2.00;;;;;;;10.68;100.00;95361.00;5055235;28;20201;-66
2022/01/03 04:02:53;;;;;;;2.90;1.43;;;;;;;10.68;100.00;95371.91;5072719;28;20220;-65
2022/01/03 04:05:18;;;;;;;3.63;1.50;;;;;;;10.65;100.00;95372.72;5073349;28;20190;-65
2022/01/03 04:07:44;;;;;;;2.77;1.40;;;;;;;10.62;100.00;95368.06;5055591;28;20203;-65
2022/01/03 04:10:11;;;;;;;4.50;1.60;;;;;;;10.73;100.00;95385.13;5055129;28;20177;-66
2022/01/03 04:12:37;;;;;;;3.63;1.60;;;;;;;10.77;100.00;95364.00;5056601;28;20233;-65
2022/01/03 04:15:04;;;;;;;5.43;2.13;;;;;;;10.74;100.00;95378.50;5059051;28;20198;-66
2022/01/03 04:17:29;;;;;;;6.90;1.60;;;;;;;10.73;100.00;95374.19;5058381;28;20190;-65
2022/01/03 04:19:55;;;;;;;5.53;1.60;;;;;;;10.75;100.00;95366.41;5058787;28;20193;-65
2022/01/03 04:22:20;;;;;;;5.03;1.53;;;;;;;10.72;100.00;95378.91;5057814;28;20217;-65
2022/01/03 04:24:45;;;;;;;4.47;1.70;;;;;;;10.75;100.00;95382.78;5058606;28;20195;-60
2022/01/03 04:27:11;;;;;;;3.13;1.60;;;;;;;10.74;100.00;95392.16;5058311;28;20188;-71
2022/01/03 04:29:36;;;;;;;5.33;1.80;;;;;;;10.69;100.00;95387.13;5058854;28;20198;-71
2022/01/03 04:32:03;;;;;;;4.53;1.60;;;;;;;10.70;100.00;95385.97;5058628;28;20228;-73
2022/01/03 04:34:28;;;;;;;3.67;1.50;;;;;;;10.68;100.00;95382.84;5058253;28;20190;-71
2022/01/03 04:36:54;;;;;;;4.07;1.60;;;;;;;10.71;100.00;95373.84;5058686;28;20200;-71
2022/01/03 04:39:20;;;;;;;3.37;1.53;;;;;;;10.68;100.00;95382.84;5058718;28;20216;-70
2022/01/03 04:41:45;;;;;;;4.27;1.60;;;;;;;10.63;100.00;95373.13;5058799;28;20222;-71
2022/01/03 04:44:10;;;;;;;4.70;1.90;;;;;;;10.68;100.00;95378.16;5058528;28;20306;-71
2022/01/03 04:46:36;;;;;;;3.70;1.70;;;;;;;10.65;100.00;95380.91;5058047;28;20205;-65
2022/01/03 04:49:06;;;;;;;4.67;1.70;;;;;;;10.60;100.00;95375.91;5058537;28;20204;-65
2022/01/03 04:51:32;;;;;;;4.03;1.63;;;;;;;10.63;100.00;95381.31;5074568;28;20234;-65
2022/01/03 04:53:58;;;;;;;4.80;1.60;;;;;;;10.67;100.00;95375.84;5058074;28;20272;-65
2022/01/03 04:56:23;;;;;;;5.20;1.70;;;;;;;10.66;100.00;95391.44;5058084;28;20252;-66
2022/01/03 04:58:48;;;;;;;6.03;1.43;;;;;;;10.69;100.00;95379.72;5057960;28;20197;-65
2022/01/03 05:01:14;;;;;;;3.07;1.83;;;;;;;10.72;100.00;95389.03;5057864;28;20201;-58
2022/01/03 05:03:39;;;;;;;3.23;1.60;;;;;;;10.67;100.00;95381.28;5058286;28;20217;-59
2022/01/03 05:06:05;;;;;;;2.30;1.30;;;;;;;10.61;100.00;95389.16;5058176;28;20193;-60
2022/01/03 05:08:31;;;;;;;2.67;1.40;;;;;;;10.60;100.00;95386.81;5057978;28;20193;-61
2022/01/03 05:11:01;;;;;;;5.40;1.60;;;;;;;10.61;100.00;95382.91;5074636;28;20188;-60
2022/01/03 05:13:28;;;;;;;4.97;1.70;;;;;;;10.62;100.00;95392.63;5057700;28;20201;-60
2022/01/03 05:15:54;;;;;;;5.57;1.67;;;;;;;10.61;100.00;95388.38;5057978;28;20193;-60
2022/01/03 05:18:19;;;;;;;5.17;1.63;;;;;;;10.60;100.00;95387.56;5057554;28;20560;-60
2022/01/03 05:20:44;;;;;;;3.93;1.60;;;;;;;10.56;100.00;95391.53;5075452;28;20251;-65
2022/01/03 05:23:10;;;;;;;2.00;1.50;;;;;;;10.60;100.00;95397.75;5057454;28;20202;-58
2022/01/03 05:25:35;;;;;;;2.47;1.40;;;;;;;10.61;100.00;95394.59;5056996;28;20192;-58
2022/01/03 05:28:00;;;;;;;2.53;1.60;;;;;;;10.60;100.00;95411.38;5058333;28;20216;-58
2022/01/03 05:30:26;;;;;;;5.50;1.70;;;;;;;10.61;100.00;95407.47;5057382;28;20285;-59
2022/01/03 05:32:51;;;;;;;4.20;1.60;;;;;;;10.58;100.00;95400.09;5057580;28;20193;-58
2022/01/03 05:35:16;;;;;;;5.20;1.60;;;;;;;10.55;100.00;95406.34;5057488;28;20217;-58
2022/01/03 05:37:42;;;;;;;4.70;1.50;;;;;;;10.58;100.00;95411.78;5057994;28;20197;-58
2022/01/03 05:40:08;;;;;;;4.13;1.57;;;;;;;10.53;100.00;95430.56;5057139;28;20198;-71
2022/01/03 05:42:33;;;;;;;4.67;1.60;;;;;;;10.52;100.00;95420.81;5057100;28;20202;-58
2022/01/03 05:44:58;;;;;;;4.27;1.87;;;;;;;10.53;100.00;95420.44;5057983;28;20212;-58
2022/01/03 05:47:24;;;;;;;6.17;1.90;;;;;;;10.52;100.00;95423.56;5056859;28;20193;-58
2022/01/03 05:49:49;;;;;;;3.70;1.67;;;;;;;10.51;100.00;95417.31;5056977;28;20201;-59
2022/01/03 05:52:15;;;;;;;4.60;1.23;;;;;;;10.50;100.00;95423.16;5056893;28;20204;-59
2022/01/03 05:54:40;;;;;;;4.33;1.80;;;;;;;10.48;100.00;95428.28;5057128;28;20192;-58
2022/01/03 05:57:05;;;;;;;3.27;1.70;;;;;;;10.47;100.00;95421.22;5057281;28;20541;-71
2022/01/03 05:59:31;;;;;;;5.37;1.60;;;;;;;10.47;100.00;95434.88;5056958;28;20206;-71
2022/01/03 06:01:56;;;;;;;4.27;1.73;;;;;;;10.48;100.00;95439.94;5057030;28;20204;-57
2022/01/03 06:04:24;;;;;;;4.30;2.13;;;;;;;10.46;100.00;95427.88;5057013;28;20214;-57
2022/01/03 06:06:59;;;;;;;4.13;1.60;;;;;;;10.47;100.00;95432.94;5056719;28;20193;-57
2022/01/03 06:09:24;;;;;;;12.33;5.57;;;;;;;10.43;100.00;95426.72;5056760;28;20179;-57
2022/01/03 06:11:52;;;;;;;3.23;1.60;;;;;;;10.39;100.00;95436.13;5057390;28;20208;-57
2022/01/03 06:14:18;;;;;;;3.63;1.40;;;;;;;10.37;100.00;95433.78;5056754;28;20240;-55
2022/01/03 06:16:45;;;;;;;2.70;1.40;;;;;;;10.36;100.00;95436.91;5056934;28;20236;-65
2022/01/03 06:19:11;;;;;;;4.60;1.77;;;;;;;10.35;100.00;95443.56;5056626;28;20204;-60
2022/01/03 06:21:40;;;;;;;4.10;1.70;;;;;;;10.35;100.00;95446.28;5056565;28;20197;-62
2022/01/03 06:24:10;;;;;;;4.43;1.60;;;;;;;10.33;100.00;95424.06;5056588;28;20216;-61
2022/01/03 06:26:37;;;;;;;3.07;1.50;;;;;;;10.29;100.00;95434.22;5056584;28;20190;-61
2022/01/03 06:29:04;;;;;;;3.70;1.93;;;;;;;10.30;100.00;95438.53;5056735;28;20222;-60
2022/01/03 06:31:29;;;;;;;4.10;2.20;;;;;;;10.31;100.00;95429.16;5056589;28;20193;-61
2022/01/03 06:33:54;;;;;;;4.60;1.87;;;;;;;10.32;100.00;95430.69;5056695;28;20196;-60
2022/01/03 06:36:20;;;;;;;6.60;1.67;;;;;;;10.34;100.00;95422.91;5038104;28;20199;-59
2022/01/03 06:38:45;;;;;;;5.53;2.10;;;;;;;10.31;100.00;95426.44;5056963;28;20185;-60
2022/01/03 06:41:10;;;;;;;6.37;1.83;;;;;;;10.26;100.00;95424.13;5056950;28;20210;-59
2022/01/03 06:43:36;;;;;;;2.00;1.40;;;;;;;10.24;100.00;95423.75;5056442;28;20254;-60
2022/01/03 06:46:02;;;;;;;5.00;1.50;;;;;;;10.22;100.00;95420.63;5056278;28;20204;-60
2022/01/03 06:48:27;;;;;;;4.80;1.57;;;;;;;10.20;100.00;95425.72;5056425;28;20219;-60
2022/01/03 06:50:53;;;;;;;4.37;1.80;;;;;;;10.19;100.00;95418.72;5056570;28;20197;-59
2022/01/03 06:53:18;;;;;;;5.73;1.67;;;;;;;10.16;100.00;95431.19;5056088;28;20243;-60
2022/01/03 06:55:43;;;;;;;5.10;1.77;;;;;;;10.16;100.00;95424.97;5056081;28;20204;-64
2022/01/03 06:58:09;;;;;;;4.60;1.80;;;;;;;10.19;100.00;95437.81;5056424;28;20286;-65
2022/01/03 07:00:34;;;;;;;4.20;1.47;;;;;;;10.15;100.00;95426.91;5056066;28;20204;-66
2022/01/03 07:02:59;;;;;;;2.10;1.33;;;;;;;10.15;100.00;95432.38;5055812;28;20294;-66
2022/01/03 07:05:25;;;;;;;6.50;2.00;;;;;;;10.16;100.00;95431.19;5056567;28;20228;-66
2022/01/03 07:07:50;;;;;;;5.53;1.60;;;;;;;10.18;100.00;95433.50;5055841;28;20212;-67
2022/01/03 07:10:17;;;;;;;4.67;1.70;;;;;;;10.20;100.00;95428.44;5056066;28;20187;-63
2022/01/03 07:12:43;;;;;;;4.03;1.50;;;;;;;10.19;100.00;95443.28;5056401;28;20204;-59
2022/01/03 07:20:37;;;;;;;4.50;1.50;;;;;;;10.14;100.00;95431.56;5074359;28;20204;-59
2022/01/03 07:23:02;;;;;;;5.93;1.70;;;;;;;10.13;100.00;95440.19;5055818;28;20216;-59
2022/01/03 07:25:27;;;;;;;4.63;1.43;;;;;;;10.12;100.00;95443.31;5055735;28;20197;-59
2022/01/03 07:27:53;;;;;;;2.23;1.50;;;;;;;10.10;100.00;95441.75;5055744;28;20232;-60
2022/01/03 07:30:18;;;;;;;4.33;1.90;;;;;;;10.13;100.00;95444.88;5055566;28;20205;-66
2022/01/03 07:32:43;;;;;;;5.77;1.53;;;;;;;10.16;100.00;95449.53;5055863;28;20185;-62
2022/01/03 07:35:13;;;;;;;3.53;1.50;;;;;;;10.20;100.00;95436.63;5055961;28;20212;-59
2022/01/03 07:37:39;;;;;;;4.83;1.87;;;;;;;10.18;100.00;95442.50;5056041;28;20208;-59
2022/01/03 07:40:05;;;;;;;4.70;1.53;;;;;;;10.23;100.00;95444.03;5055765;28;20205;-59
2022/01/03 07:42:30;;;;;;;4.73;2.00;;;;;;;10.36;100.00;95442.38;5055446;28;20258;-59
2022/01/03 07:44:55;;;;;;;4.70;1.73;;;;;;;10.37;100.00;95438.47;5055342;28;20200;-59
2022/01/03 07:47:21;;;;;;;2.97;1.47;;;;;;;10.35;100.00;95435.38;5056076;28;20188;-59
2022/01/03 07:49:46;;;;;;;3.70;1.40;;;;;;;10.37;100.00;95441.97;5059601;28;20201;-67
2022/01/03 07:52:11;;;;;;;5.27;1.97;;;;;;;10.39;100.00;95436.91;5058999;28;20189;-68
2022/01/03 07:54:37;;;;;;;5.20;2.00;;;;;;;10.43;100.00;95439.59;5058987;28;20197;-67
2022/01/03 07:57:02;;;;;;;6.63;1.90;;;;;;;10.39;100.00;95441.56;5059213;28;20204;-67
2022/01/03 07:59:28;;;;;;;3.33;1.40;;;;;;;10.42;100.00;95446.25;5058890;28;20197;-66
2022/01/03 08:01:53;;;;;;;4.23;1.70;;;;;;;10.44;100.00;95446.59;5058711;28;20199;-67
2022/01/03 08:04:18;;;;;;;4.17;1.80;;;;;;;10.44;100.00;95443.88;5058978;28;20225;-66
2022/01/03 08:06:44;;;;;;;4.73;1.70;;;;;;;10.46;100.00;95436.84;5059154;28;20223;-60
2022/01/03 08:09:10;;;;;;;6.27;1.87;;;;;;;10.52;100.00;95426.28;5058921;28;20209;-57
2022/01/03 08:11:35;;;;;;;6.57;1.77;;;;;;;10.55;100.00;95434.44;5058773;28;20231;-56
2022/01/03 08:14:00;;;;;;;5.23;1.70;;;;;;;10.60;100.00;95428.53;5058585;28;20198;-56
2022/01/03 08:16:25;;;;;;;3.37;1.40;;;;;;;10.62;100.00;95423.47;5058441;28;20209;-57
2022/01/03 08:18:51;;;;;;;1.93;1.20;;;;;;;10.61;100.00;95437.50;5058419;28;20193;-56
2022/01/03 08:21:16;;;;;;;4.27;1.50;;;;;;;10.62;100.00;95433.59;5076287;28;20227;-56
2022/01/03 08:23:42;;;;;;;5.60;1.93;;;;;;;10.70;100.00;95432.38;5058207;28;20290;-61
2022/01/03 08:26:07;;;;;;;2.27;1.60;;;;;;;10.76;100.00;95444.41;5058902;28;20232;-72
2022/01/03 08:28:32;;;;;;;5.83;1.80;;;;;;;10.79;100.00;95440.88;5059137;28;20200;-65
2022/01/03 08:30:58;;;;;;;4.63;1.80;;;;;;;10.83;100.00;95436.16;5058407;28;20210;-65
2022/01/03 08:33:23;;;;;;;7.30;1.70;;;;;;;10.84;100.00;95437.72;5058179;28;20201;-66
2022/01/03 08:35:48;;;;;;;2.60;1.43;;;;;;;10.93;100.00;95427.88;5058943;28;20263;-66
2022/01/03 08:38:14;;;;;;;7.20;3.30;;;;;;;10.95;100.00;95435.66;5075357;28;20289;-66
2022/01/03 08:40:40;;;;;;;2.37;1.40;;;;;;;11.01;100.00;95428.59;5058661;28;20202;-65
2022/01/03 08:43:05;;;;;;;3.23;1.30;;;;;;;11.07;100.00;95426.97;5057982;28;20217;-66
2022/01/03 08:45:31;;;;;;;3.37;1.60;;;;;;;11.12;100.00;95423.78;5058166;28;20193;-61
2022/01/03 08:47:58;;;;;;;4.60;1.33;;;;;;;11.20;100.00;95415.13;5058511;28;20282;-61
2022/01/03 08:50:24;;;;;;;4.20;1.30;;;;;;;11.30;100.00;95429.84;5058552;28;20230;-61
2022/01/03 08:52:49;;;;;;;7.83;2.07;;;;;;;11.36;100.00;95422.78;5057922;28;20199;-61
2022/01/03 08:55:15;;;;;;;3.30;1.40;;;;;;;11.39;100.00;95427.41;5058066;28;20193;-61
2022/01/03 08:57:41;;;;;;;4.03;1.60;;;;;;;11.39;100.00;95427.41;5058141;28;20203;-61
2022/01/03 09:00:08;;;;;;;2.63;1.33;;;;;;;11.50;100.00;95422.59;5056763;28;20192;-71
2022/01/03 09:02:34;;;;;;;4.23;1.80;;;;;;;11.56;100.00;95410.81;5057971;28;20242;-61
2022/01/03 09:04:59;;;;;;;5.53;1.40;;;;;;;11.58;100.00;95404.94;5058376;28;20247;-58
2022/01/03 09:07:24;;;;;;;3.23;1.50;;;;;;;11.62;100.00;95408.44;5058302;28;20269;-58
2022/01/03 09:09:50;;;;;;;4.80;1.50;;;;;;;11.71;100.00;95419.66;5057669;28;20207;-58
2022/01/03 09:12:15;;;;;;;5.40;1.67;;;;;;;11.77;100.00;95415.28;5058016;28;20256;-58
2022/01/03 09:14:42;;;;;;;3.90;1.40;;;;;;;11.73;100.00;95414.56;5057666;28;20207;-58
2022/01/03 09:17:07;;;;;;;3.50;1.27;;;;;;;11.75;100.00;95412.16;5057746;28;20286;-58
2022/01/03 09:19:35;;;;;;;3.77;1.50;;;;;;;11.76;100.00;95419.22;5058098;28;20290;-65
2022/01/03 09:22:11;;;;;;;2.37;1.30;;;;;;;11.75;100.00;95423.13;5057749;28;20239;-61
2022/01/03 09:24:53;;;;;;;4.43;1.70;;;;;;;11.76;100.00;95417.22;5057653;28;20199;-61
2022/01/03 09:30:05;;;;;;;3.37;1.40;;;;;;;11.68;100.00;95409.53;5075507;28;20218;-61
2022/01/03 09:32:30;;;;;;;3.37;1.20;;;;;;;11.78;100.00;95419.56;5057448;28;20208;-61
2022/01/03 09:34:57;;;;;;;3.43;1.20;;;;;;;11.83;100.00;95419.09;5075400;28;20200;-61
2022/01/03 09:37:23;;;;;;;3.13;1.27;;;;;;;11.81;100.00;95422.28;5057221;28;20211;-58
2022/01/03 09:39:49;;;;;;;2.73;1.30;;;;;;;11.91;100.00;95420.59;5057528;28;20199;-57
2022/01/03 09:42:22;;;;;;;4.27;1.60;;;;;;;11.86;100.00;95423.75;5057066;28;20236;-60
2022/01/03 09:44:49;;;;;;;3.53;1.20;;;;;;;11.90;100.00;95429.97;5075360;28;20247;-60
2022/01/03 09:47:17;;;;;;;1.63;1.20;;;;;;;11.77;100.00;95415.28;5057255;28;20248;-61
2022/01/03 09:49:43;;;;;;;2.57;1.53;;;;;;;11.72;100.00;95423.94;5057583;28;20235;-60
2022/01/03 09:52:09;;;;;;;5.13;1.40;;;;;;;11.74;100.00;95421.56;5057163;28;20204;-61
2022/01/03 09:54:36;;;;;;;3.93;1.40;;;;;;;11.77;100.00;95420.75;5057184;28;20210;-61
2022/01/03 09:57:03;;;;;;;5.37;1.47;;;;;;;11.75;100.00;95412.97;5057414;28;20211;-58
2022/01/03 09:59:29;;;;;;;5.63;1.73;;;;;;;11.79;100.00;95413.69;5057376;28;20196;-58
2022/01/03 10:01:56;;;;;;;2.17;1.10;;;;;;;11.81;100.00;95418.75;5056659;28;20204;-57
2022/01/03 10:04:22;;;;;;;2.83;1.40;;;;;;;11.82;100.00;95409.34;5056605;28;20222;-57
2022/01/03 10:06:49;;;;;;;2.13;1.17;;;;;;;11.92;100.00;95408.44;5057030;28;20234;-59
2022/01/03 10:09:15;;;;;;;3.93;1.37;;;;;;;11.89;100.00;95410.03;5057256;28;20224;-57
2022/01/03 10:11:40;;;;;;;5.20;1.40;;;;;;;11.97;100.00;95402.50;5056511;28;20202;-57
2022/01/03 10:14:06;;;;;;;3.20;1.50;;;;;;;12.01;100.00;95404.00;5056772;28;20202;-66
2022/01/03 10:16:31;;;;;;;4.37;1.40;;;;;;;12.11;100.00;95394.09;5056433;28;20242;-66
2022/01/03 10:18:58;;;;;;;3.83;1.30;;;;;;;12.18;100.00;95403.00;5057239;28;20206;-61
2022/01/03 10:21:34;;;;;;;3.70;1.37;;;;;;;12.14;100.00;95405.03;5056621;28;20332;-61
2022/01/03 10:24:00;;;;;;;5.97;1.50;;;;;;;12.17;100.00;95406.91;5056764;28;20226;-61
2022/01/03 10:26:25;;;;;;;3.40;1.33;;;;;;;12.23;100.00;95394.31;5056801;28;20203;-61
2022/01/03 10:29:09;;;;;;;2.47;1.07;;;;;;;12.30;100.00;95398.91;5056788;28;20230;-61
2022/01/03 10:31:39;;;;;;;4.23;1.30;;;;;;;12.25;100.00;95394.69;5056690;28;20194;-61
2022/01/03 10:34:11;;;;;;;2.63;1.20;;;;;;;12.26;100.00;95389.97;5056520;28;20204;-58
2022/01/03 10:36:38;;;;;;;4.37;1.23;;;;;;;12.30;100.00;95390.69;5056394;28;20203;-57
2022/01/03 10:39:19;;;;;;;5.60;1.60;;;;;;;12.34;100.00;95383.19;5056734;28;20347;-57
2022/01/03 10:41:46;;;;;;;3.03;1.30;;;;;;;12.21;100.00;95401.41;5056168;28;20234;-57
2022/01/03 10:44:29;;;;;;;2.50;1.40;;;;;;;12.31;100.00;95389.53;5056514;28;20265;-57
2022/01/03 10:46:54;;;;;;;3.67;1.93;;;;;;;12.37;100.00;95393.31;5073138;28;20254;-58
2022/01/03 10:49:20;;;;;;;3.93;1.43;;;;;;;12.32;100.00;95377.38;5055969;28;20207;-57
2022/01/03 10:51:47;;;;;;;3.23;1.20;;;;;;;12.41;100.00;95392.09;5056633;28;20192;-60
2022/01/03 10:54:15;;;;;;;2.77;1.60;;;;;;;12.35;100.00;95379.28;5056194;28;20208;-61
2022/01/03 10:56:51;;;;;;;4.80;1.60;;;;;;;12.26;100.00;95370.81;5074190;28;20194;-60
2022/01/03 10:59:18;;;;;;;5.50;1.40;;;;;;;12.28;100.00;95352.00;5056789;28;20202;-61
2022/01/03 11:01:46;;;;;;;2.87;1.30;;;;;;;12.25;100.00;95374.72;5056185;28;20295;-60
2022/01/03 11:04:34;;;;;;;4.50;1.30;;;;;;;12.26;100.00;95371.59;5055971;28;20216;-61
2022/01/03 11:13:09;;;;;;;4.63;1.60;;;;;;;12.43;100.00;95361.53;5074084;28;20258;-60
2022/01/03 11:15:36;;;;;;;4.00;1.40;;;;;;;12.48;100.00;95361.06;5055853;28;20212;-61
2022/01/03 11:18:14;;;;;;;3.50;1.40;;;;;;;12.37;100.00;95360.47;5056312;28;20245;-61
2022/01/03 11:20:40;;;;;;;5.07;2.77;;;;;;;12.43;100.00;95345.13;5055896;28;20198;-61
2022/01/03 11:23:06;;;;;;;4.23;1.60;;;;;;;12.37;100.00;95339.34;5057328;28;20302;-60
2022/01/03 11:25:34;;;;;;;3.93;2.10;;;;;;;12.51;100.00;95343.81;5059563;28;20227;-61
2022/01/03 11:28:03;;;;;;;3.80;1.47;;;;;;;12.55;100.00;95339.03;5059125;28;20192;-61
2022/01/03 11:30:29;;;;;;;2.57;1.17;;;;;;;12.45;100.00;95337.25;5059091;28;20199;-58
2022/01/03 11:32:56;;;;;;;2.43;1.17;;;;;;;12.55;100.00;95328.09;5059253;28;20254;-59
2022/01/03 11:35:22;;;;;;;4.40;1.30;;;;;;;12.59;100.00;95331.53;5059372;28;20204;-59
2022/01/03 11:37:48;;;;;;;4.50;1.40;;;;;;;12.61;100.00;95332.66;5059383;28;20197;-59
2022/01/03 11:40:16;;;;;;;2.40;1.10;;;;;;;12.54;100.00;95323.81;5059617;28;20201;-59
2022/01/03 11:42:43;;;;;;;3.37;1.07;;;;;;;12.55;100.00;95328.09;5059105;28;20212;-59